メインページ
METAR-TAF:

METAR-TAF

空港 :

ファアア国際空港

タヒチ, フランス領ポリネシア

緯度: 17-33S, 経度: 149-37W, 海抜: 2m

現時点の気象観測

当レポートは16分前の10:00(UTC)に作成
の風 3kt
気温 22°C
湿度 78%
気圧 1015 hPa
視程10km以上
高度2600ftの雲はほとんどない

METAR: NTAA 181000Z 19003KT 9999 FEW026 22/18 Q1015 NOSIG

時間: 00:16 (10:16 UTC)

予報

当レポートは5時間16分前の05:00(UTC)に作成
予報は18日の 06時(UTC)から 19日の 12時(UTC)まで有効
変向風 5kt
視程10km以上
高度2300ftの雲はほとんどない

TAF: NTAA 180500Z 1806/1912 VRB05KT 9999 FEW023

4,000以上の空港の気象観測と天気予報(METAR報とTAF報)

利用可能な観測所は地図上に黄色い丸と赤い丸で示す。

丸の上にカーソルを重ねると観測所名を参照できる。

次にクリックすると気象観測と天気予報を参照できる。

マップの切り替え:黒色「×」印の緑ボタンをクリックして拡大、「-」印の緑ボタンをクリックして縮小、緑色の三角印をクリックして隣りの地図に切り替え


METAR-TAF: